createdAt,value
2022-12-17T00:01:10.240Z,81.91
2022-12-17T00:03:56.991Z,81.82
2022-12-17T00:06:44.080Z,81.90
2022-12-17T00:09:29.839Z,81.61
2022-12-17T00:12:15.675Z,81.87
2022-12-17T00:15:01.435Z,81.73
2022-12-17T00:17:47.169Z,81.59
2022-12-17T00:20:32.934Z,81.36
2022-12-17T00:23:24.440Z,81.96
2022-12-17T00:26:15.238Z,82.54
2022-12-17T00:29:01.653Z,82.42
2022-12-17T00:31:49.910Z,82.15
2022-12-17T00:34:35.928Z,82.24
2022-12-17T00:37:21.836Z,82.25
2022-12-17T00:40:07.587Z,81.92
2022-12-17T00:42:53.344Z,81.93
2022-12-17T00:45:42.032Z,81.76
2022-12-17T00:48:28.026Z,81.56
2022-12-17T00:51:14.377Z,81.85
2022-12-17T00:54:00.104Z,81.60
2022-12-17T00:56:46.669Z,81.70
2022-12-17T00:59:32.455Z,81.58
2022-12-17T01:02:18.399Z,81.65
2022-12-17T01:05:04.219Z,81.79
2022-12-17T01:07:50.172Z,81.37
2022-12-17T01:10:35.966Z,81.49
2022-12-17T01:13:22.299Z,81.48
2022-12-17T01:16:07.914Z,81.26
2022-12-17T01:18:53.872Z,81.08
2022-12-17T01:21:42.155Z,81.33
2022-12-17T01:24:27.958Z,81.15
2022-12-17T01:27:13.799Z,80.90
2022-12-17T01:29:59.991Z,80.91
2022-12-17T01:32:45.578Z,81.30
2022-12-17T01:35:32.061Z,81.35
2022-12-17T01:38:17.724Z,81.69
2022-12-17T01:41:03.507Z,81.40
2022-12-17T01:43:55.855Z,81.11
2022-12-17T01:46:44.403Z,81.24
2022-12-17T01:49:31.548Z,81.68
2022-12-17T01:52:19.498Z,81.36
2022-12-17T01:55:06.479Z,81.09
2022-12-17T01:57:53.852Z,81.14
2022-12-17T02:00:40.214Z,80.94
2022-12-17T02:03:34.470Z,81.11
2022-12-17T02:07:06.809Z,80.96
2022-12-17T02:10:12.885Z,80.78
2022-12-17T02:13:11.207Z,80.86
2022-12-17T02:16:08.943Z,80.89
2022-12-17T02:19:14.353Z,81.19
2022-12-17T02:22:05.338Z,81.09
2022-12-17T02:25:11.245Z,81.13
2022-12-17T02:27:57.142Z,80.81
2022-12-17T02:30:42.959Z,81.19
2022-12-17T02:33:31.389Z,81.10
2022-12-17T02:36:24.093Z,80.81
2022-12-17T02:39:09.913Z,80.96
2022-12-17T02:42:15.051Z,80.53
2022-12-17T02:45:02.478Z,80.90
2022-12-17T02:47:48.699Z,80.68
2022-12-17T02:50:34.887Z,81.08
2022-12-17T02:53:22.809Z,80.94
2022-12-17T02:56:08.553Z,81.13
2022-12-17T02:58:54.535Z,80.94
2022-12-17T03:01:40.471Z,81.09
2022-12-17T03:04:26.160Z,80.36
2022-12-17T03:07:12.319Z,80.42
2022-12-17T03:09:57.749Z,80.55
2022-12-17T03:12:43.915Z,80.56
2022-12-17T03:15:29.777Z,80.57
2022-12-17T03:18:15.768Z,79.91
2022-12-17T03:21:01.660Z,80.23
2022-12-17T03:23:47.384Z,80.12
2022-12-17T03:26:33.025Z,80.23
2022-12-17T03:29:18.896Z,79.77
2022-12-17T03:32:07.807Z,79.44
2022-12-17T03:34:53.451Z,79.38
2022-12-17T03:37:39.395Z,79.25
2022-12-17T03:40:26.113Z,79.16
2022-12-17T03:43:12.051Z,79.15
2022-12-17T03:45:58.223Z,79.18
2022-12-17T03:48:44.269Z,78.98
2022-12-17T03:51:30.112Z,79.08
2022-12-17T03:54:15.758Z,78.95
2022-12-17T03:57:01.971Z,79.11
2022-12-17T03:59:47.736Z,79.44
2022-12-17T04:02:34.032Z,79.62
2022-12-17T04:05:20.505Z,79.34
2022-12-17T04:08:06.973Z,79.33
2022-12-17T04:11:00.523Z,79.40
2022-12-17T04:13:46.538Z,79.52
2022-12-17T04:16:32.629Z,79.62
2022-12-17T04:19:18.967Z,79.44
2022-12-17T04:22:04.740Z,79.93
2022-12-17T04:24:50.528Z,79.72
2022-12-17T04:27:36.374Z,79.89
2022-12-17T04:30:23.255Z,79.96
2022-12-17T04:33:08.887Z,79.76
2022-12-17T04:36:02.754Z,79.47
2022-12-17T04:38:48.569Z,79.80
2022-12-17T04:41:34.782Z,79.81
2022-12-17T04:44:20.891Z,80.02
2022-12-17T04:47:07.018Z,80.03
2022-12-17T04:49:52.734Z,80.56
2022-12-17T04:52:38.541Z,80.61
2022-12-17T04:55:24.713Z,80.64
2022-12-17T04:58:10.580Z,80.80
2022-12-17T05:00:56.441Z,81.00
2022-12-17T05:03:42.182Z,80.69
2022-12-17T05:06:29.068Z,80.93
2022-12-17T05:09:15.132Z,80.80
2022-12-17T05:12:00.987Z,80.54
2022-12-17T05:14:47.268Z,80.86
2022-12-17T05:17:32.779Z,80.76
2022-12-17T05:20:18.615Z,80.75
2022-12-17T05:23:04.457Z,80.60
2022-12-17T05:25:50.217Z,80.67
2022-12-17T05:28:36.038Z,80.34
2022-12-17T05:31:21.853Z,80.11
2022-12-17T05:34:07.507Z,80.24
2022-12-17T05:36:53.367Z,80.21
2022-12-17T05:39:39.065Z,80.37
2022-12-17T05:42:24.917Z,80.68
2022-12-17T05:45:10.732Z,81.09
2022-12-17T05:47:56.696Z,81.42
2022-12-17T05:50:56.283Z,81.60
2022-12-17T05:53:42.288Z,81.31
2022-12-17T05:56:28.281Z,81.11
2022-12-17T05:59:14.377Z,81.13
2022-12-17T06:02:00.234Z,80.72
2022-12-17T06:04:46.511Z,80.93
2022-12-17T06:07:32.301Z,80.78
2022-12-17T06:10:18.181Z,81.12
2022-12-17T06:13:03.997Z,81.27
2022-12-17T06:15:50.106Z,81.61
2022-12-17T06:18:36.409Z,81.94
2022-12-17T06:21:22.805Z,81.88
2022-12-17T06:24:08.405Z,81.73
2022-12-17T06:26:54.295Z,81.35
2022-12-17T06:29:40.117Z,81.34
2022-12-17T06:32:25.967Z,81.42
2022-12-17T06:35:11.662Z,82.03
2022-12-17T06:37:57.513Z,82.23
2022-12-17T06:40:43.216Z,82.28
2022-12-17T06:43:29.027Z,82.25
2022-12-17T06:46:14.942Z,82.03
2022-12-17T06:49:00.894Z,81.66
2022-12-17T06:51:46.649Z,82.08
2022-12-17T06:54:32.433Z,81.68
2022-12-17T06:57:18.022Z,81.35
2022-12-17T07:00:03.955Z,81.57
2022-12-17T07:02:49.831Z,81.27
2022-12-17T07:05:35.919Z,81.09
2022-12-17T07:08:22.035Z,81.31
2022-12-17T07:11:07.706Z,81.13
2022-12-17T07:13:53.411Z,81.13
2022-12-17T07:16:39.874Z,80.84
2022-12-17T07:19:27.440Z,80.69
2022-12-17T07:22:14.672Z,80.46
2022-12-17T07:25:00.485Z,80.80
2022-12-17T07:27:46.698Z,80.41
2022-12-17T07:30:32.326Z,80.50
2022-12-17T07:33:29.372Z,80.51
2022-12-17T07:36:15.253Z,81.25
2022-12-17T07:39:01.005Z,81.10
2022-12-17T07:41:46.592Z,80.87
2022-12-17T07:44:32.351Z,80.48
2022-12-17T07:47:17.921Z,80.33
2022-12-17T07:50:03.815Z,79.76
2022-12-17T07:52:49.542Z,79.12
2022-12-17T07:55:35.198Z,79.19
2022-12-17T07:58:28.876Z,78.75
2022-12-17T08:01:18.789Z,78.11
2022-12-17T08:04:05.470Z,77.78
2022-12-17T08:06:55.117Z,76.60
2022-12-17T08:09:44.257Z,76.41
2022-12-17T08:12:29.979Z,75.98
2022-12-17T08:15:15.835Z,75.77
2022-12-17T08:18:01.602Z,75.33
2022-12-17T08:20:47.899Z,75.21
2022-12-17T08:23:34.366Z,74.53
2022-12-17T08:26:21.748Z,73.93
2022-12-17T08:29:07.919Z,72.62
2022-12-17T08:31:53.763Z,72.40
2022-12-17T08:34:39.450Z,71.27
2022-12-17T08:37:32.761Z,70.97
2022-12-17T08:40:18.774Z,71.27
2022-12-17T08:43:04.512Z,70.86
2022-12-17T08:45:50.375Z,71.03
2022-12-17T08:48:35.888Z,70.30
2022-12-17T08:51:23.730Z,70.38
2022-12-17T08:54:09.323Z,70.42
2022-12-17T08:56:55.154Z,72.76
2022-12-17T08:59:42.851Z,71.17
2022-12-17T09:02:29.233Z,70.75
2022-12-17T09:05:14.952Z,69.81
2022-12-17T09:08:00.587Z,68.44
2022-12-17T09:10:46.427Z,67.10
2022-12-17T09:13:32.509Z,64.74
2022-12-17T09:16:18.019Z,63.89
2022-12-17T09:19:04.647Z,62.16
2022-12-17T09:21:50.899Z,60.96
2022-12-17T09:24:36.608Z,61.52
2022-12-17T09:27:22.434Z,62.14
2022-12-17T09:30:08.334Z,62.45
2022-12-17T09:32:55.692Z,62.44
2022-12-17T09:35:43.528Z,62.55
2022-12-17T09:38:35.922Z,61.95
2022-12-17T09:41:40.302Z,62.45
2022-12-17T09:45:07.241Z,63.40
2022-12-17T09:48:33.300Z,63.77
2022-12-17T09:51:19.179Z,64.18
2022-12-17T09:54:09.145Z,64.22
2022-12-17T09:56:58.305Z,64.43
2022-12-17T09:59:51.519Z,64.18
2022-12-17T10:02:43.647Z,64.29
2022-12-17T10:05:48.688Z,64.94
2022-12-17T10:08:39.987Z,65.43
2022-12-17T10:11:46.887Z,65.47
2022-12-17T10:14:42.836Z,66.31
2022-12-17T10:17:37.358Z,66.68
2022-12-17T10:20:39.950Z,67.22
2022-12-17T10:23:26.083Z,68.42
2022-12-17T10:26:15.630Z,67.84
2022-12-17T10:29:02.012Z,68.26
2022-12-17T10:31:49.387Z,69.10
2022-12-17T10:34:39.631Z,69.73
2022-12-17T10:37:37.501Z,70.16
2022-12-17T10:40:48.195Z,70.34
2022-12-17T10:43:46.476Z,69.90
2022-12-17T10:46:49.084Z,70.39
2022-12-17T10:49:42.202Z,72.39
2022-12-17T10:52:50.515Z,74.39
2022-12-17T10:55:47.401Z,72.92
2022-12-17T10:58:48.327Z,72.10
2022-12-17T11:01:44.779Z,71.65
2022-12-17T11:04:50.633Z,72.45
2022-12-17T11:07:59.852Z,71.97
2022-12-17T11:11:01.665Z,71.88
2022-12-17T11:14:11.144Z,71.67
2022-12-17T11:17:13.811Z,71.20
2022-12-17T11:20:10.162Z,70.84
2022-12-17T11:23:11.500Z,70.24
2022-12-17T11:26:28.510Z,69.88
2022-12-17T11:29:14.829Z,70.17
2022-12-17T11:32:18.295Z,70.22
2022-12-17T11:35:19.701Z,70.36
2022-12-17T11:38:41.369Z,70.21
2022-12-17T11:41:53.232Z,70.53
2022-12-17T11:44:54.392Z,71.03
2022-12-17T11:48:35.575Z,71.10
2022-12-17T11:52:40.149Z,71.52
2022-12-17T11:56:11.814Z,71.80
2022-12-17T11:59:26.507Z,71.99
2022-12-17T12:02:35.860Z,73.85
2022-12-17T12:05:58.224Z,73.41
2022-12-17T12:08:49.083Z,73.53
2022-12-17T12:11:49.547Z,74.40
2022-12-17T12:15:02.486Z,73.70
2022-12-17T12:18:25.585Z,74.16
2022-12-17T12:22:07.424Z,75.34
2022-12-17T12:25:30.080Z,75.16
2022-12-17T12:28:54.135Z,76.41
2022-12-17T12:32:01.090Z,76.37
2022-12-17T12:34:54.388Z,76.10
2022-12-17T12:37:42.172Z,76.20
2022-12-17T12:40:57.264Z,76.77
2022-12-17T12:43:52.605Z,77.19
2022-12-17T12:47:07.235Z,77.10
2022-12-17T12:50:39.696Z,77.75
2022-12-17T12:53:30.958Z,78.19
2022-12-17T12:56:16.833Z,78.40
2022-12-17T12:59:03.152Z,78.44
2022-12-17T13:01:57.304Z,78.46
2022-12-17T13:04:54.408Z,78.23
2022-12-17T13:07:30.357Z,79.09
2022-12-17T13:09:59.466Z,79.54
2022-12-17T13:12:45.806Z,79.82
2022-12-17T13:15:33.389Z,79.92
2022-12-17T13:18:35.560Z,80.17
2022-12-17T13:21:17.372Z,81.16
2022-12-17T13:23:44.681Z,80.70
2022-12-17T13:26:23.226Z,80.27
2022-12-17T13:28:56.546Z,79.75
2022-12-17T13:31:44.990Z,79.66
2022-12-17T13:34:55.079Z,79.75
2022-12-17T13:37:25.172Z,80.58
2022-12-17T13:40:22.218Z,80.27
2022-12-17T13:42:50.426Z,79.92
2022-12-17T13:45:23.831Z,80.24
2022-12-17T13:47:59.339Z,79.80
2022-12-17T13:50:35.624Z,80.15
2022-12-17T13:53:13.226Z,79.38
2022-12-17T13:55:41.224Z,79.92
2022-12-17T13:58:30.427Z,80.32
2022-12-17T14:01:12.545Z,80.39
2022-12-17T14:04:08.641Z,81.09
2022-12-17T14:06:38.776Z,80.57
2022-12-17T14:09:06.941Z,80.77
2022-12-17T14:11:56.035Z,80.92
2022-12-17T14:14:35.562Z,80.91
2022-12-17T14:17:03.415Z,81.32
2022-12-17T14:19:32.705Z,81.54
2022-12-17T14:22:01.211Z,81.99
2022-12-17T14:24:30.031Z,81.99
2022-12-17T14:27:00.783Z,82.28
2022-12-17T14:29:32.676Z,81.58
2022-12-17T14:32:21.420Z,82.15
2022-12-17T14:34:48.995Z,82.13
2022-12-17T14:37:21.939Z,80.82
2022-12-17T14:39:50.463Z,81.45
2022-12-17T14:42:26.125Z,81.44
2022-12-17T14:45:05.520Z,81.58
2022-12-17T14:47:37.922Z,81.44
2022-12-17T14:50:26.214Z,80.96
2022-12-17T14:52:57.551Z,81.16
2022-12-17T14:55:34.254Z,81.71
2022-12-17T14:58:16.323Z,81.93
2022-12-17T15:01:11.233Z,81.69
2022-12-17T15:03:42.999Z,82.08
2022-12-17T15:06:15.457Z,82.21
2022-12-17T15:08:47.066Z,82.04
2022-12-17T15:11:20.124Z,82.09
2022-12-17T15:13:52.834Z,82.21
2022-12-17T15:16:22.027Z,81.44
2022-12-17T15:18:49.858Z,82.12
2022-12-17T15:21:19.274Z,82.20
2022-12-17T15:23:48.467Z,82.10
2022-12-17T15:26:17.457Z,82.57
2022-12-17T15:28:44.870Z,82.58
2022-12-17T15:31:14.943Z,82.64
2022-12-17T15:33:42.898Z,82.50
2022-12-17T15:36:12.156Z,82.55
2022-12-17T15:38:40.253Z,82.88
2022-12-17T15:41:27.030Z,83.09
2022-12-17T15:43:54.254Z,83.20
2022-12-17T15:46:21.856Z,83.90
2022-12-17T15:48:50.634Z,83.50
2022-12-17T15:51:21.235Z,83.54
2022-12-17T15:53:50.022Z,83.48
2022-12-17T15:56:28.958Z,83.72
2022-12-17T15:58:59.671Z,84.10
2022-12-17T16:01:27.589Z,84.19
2022-12-17T16:03:55.172Z,84.21
2022-12-17T16:06:22.826Z,84.71
2022-12-17T16:08:50.093Z,85.08
2022-12-17T16:11:17.648Z,84.87
2022-12-17T16:13:44.904Z,84.77
2022-12-17T16:16:12.484Z,85.13
2022-12-17T16:18:40.149Z,85.25
2022-12-17T16:21:09.619Z,84.80
2022-12-17T16:23:37.808Z,84.98
2022-12-17T16:26:09.255Z,85.21
2022-12-17T16:28:37.918Z,85.44
2022-12-17T16:31:13.852Z,85.03
2022-12-17T16:33:44.147Z,84.82
2022-12-17T16:36:16.285Z,84.75
2022-12-17T16:38:52.769Z,84.43
2022-12-17T16:41:22.136Z,84.18
2022-12-17T16:43:49.570Z,83.91
2022-12-17T16:46:31.372Z,82.95
2022-12-17T16:49:05.183Z,82.85
2022-12-17T16:51:33.092Z,82.87
2022-12-17T16:54:05.270Z,82.52
2022-12-17T16:56:38.127Z,82.76
2022-12-17T16:59:08.484Z,82.57
2022-12-17T17:01:38.318Z,82.22
2022-12-17T17:04:09.314Z,82.55
2022-12-17T17:06:52.242Z,82.80
2022-12-17T17:09:21.061Z,83.14
2022-12-17T17:11:51.738Z,83.16
2022-12-17T17:14:20.041Z,83.26
2022-12-17T17:16:47.629Z,82.95
2022-12-17T17:19:15.256Z,83.47
2022-12-17T17:21:53.976Z,83.44
2022-12-17T17:24:25.593Z,83.43
2022-12-17T17:26:55.205Z,83.84
2022-12-17T17:29:22.591Z,83.62
2022-12-17T17:34:37.877Z,83.23
2022-12-17T17:37:05.554Z,83.12
2022-12-17T17:39:34.383Z,82.83
2022-12-17T17:42:02.681Z,82.99
2022-12-17T17:44:29.937Z,82.88
2022-12-17T17:46:57.816Z,83.09
2022-12-17T17:49:25.276Z,82.89
2022-12-17T17:52:09.000Z,83.31
2022-12-17T17:54:37.513Z,83.20
2022-12-17T17:57:04.994Z,82.98
2022-12-17T17:59:34.165Z,82.83
2022-12-17T18:02:03.573Z,82.73
2022-12-17T18:04:32.152Z,82.69
2022-12-17T18:07:24.167Z,82.44
2022-12-17T18:09:47.136Z,82.35
2022-12-17T18:12:33.106Z,82.27
2022-12-17T18:15:19.306Z,82.23
2022-12-17T18:17:51.488Z,82.24
2022-12-17T18:20:18.946Z,82.17
2022-12-17T18:22:47.172Z,82.44
2022-12-17T18:25:17.003Z,82.67
2022-12-17T18:27:45.052Z,82.40
2022-12-17T18:30:13.733Z,82.83
2022-12-17T18:32:41.534Z,83.17
2022-12-17T18:35:10.326Z,83.07
2022-12-17T18:37:38.663Z,83.13
2022-12-17T18:40:08.163Z,82.48
2022-12-17T18:42:54.583Z,82.38
2022-12-17T18:45:22.584Z,82.23
2022-12-17T18:47:51.336Z,81.73
2022-12-17T18:50:18.672Z,82.04
2022-12-17T18:52:46.208Z,81.76
2022-12-17T18:55:13.689Z,81.89
2022-12-17T18:57:41.178Z,81.92
2022-12-17T19:00:09.550Z,82.07
2022-12-17T19:02:37.179Z,81.89
2022-12-17T19:05:04.873Z,81.69
2022-12-17T19:07:32.308Z,81.94
2022-12-17T19:09:59.497Z,81.68
2022-12-17T19:12:27.079Z,81.54
2022-12-17T19:14:54.311Z,82.46
2022-12-17T19:17:21.774Z,82.78
2022-12-17T19:19:49.106Z,82.79
2022-12-17T19:22:16.848Z,83.27
2022-12-17T19:24:44.129Z,82.79
2022-12-17T19:27:11.671Z,83.24
2022-12-17T19:29:38.869Z,83.40
2022-12-17T19:32:06.438Z,83.41
2022-12-17T19:34:35.194Z,83.66
2022-12-17T19:37:02.800Z,83.43
2022-12-17T19:39:30.015Z,83.61
2022-12-17T19:41:57.488Z,83.63
2022-12-17T19:44:25.220Z,83.50
2022-12-17T19:46:52.768Z,83.93
2022-12-17T19:49:19.967Z,84.06
2022-12-17T19:51:47.490Z,84.09
2022-12-17T19:54:15.624Z,84.24
2022-12-17T19:56:45.593Z,84.24
2022-12-17T19:59:14.024Z,83.92
2022-12-17T20:01:46.521Z,83.14
2022-12-17T20:04:16.525Z,83.68
2022-12-17T20:06:45.372Z,83.40
2022-12-17T20:09:14.104Z,83.31
2022-12-17T20:11:41.949Z,84.04
2022-12-17T20:14:22.544Z,84.66
2022-12-17T20:16:55.395Z,84.48
2022-12-17T20:19:26.540Z,85.36
2022-12-17T20:21:55.072Z,86.37
2022-12-17T20:24:28.821Z,85.99
2022-12-17T20:26:59.555Z,85.38
2022-12-17T20:29:27.462Z,84.75
2022-12-17T20:31:56.157Z,84.51
2022-12-17T20:34:24.639Z,83.88
2022-12-17T20:36:53.775Z,83.91
2022-12-17T20:39:26.586Z,83.63
2022-12-17T20:41:55.944Z,83.67
2022-12-17T20:44:23.478Z,83.75
2022-12-17T20:46:50.935Z,83.48
2022-12-17T20:49:18.129Z,83.70
2022-12-17T20:51:45.676Z,83.50
2022-12-17T20:54:12.962Z,83.09
2022-12-17T20:56:40.814Z,83.37
2022-12-17T20:59:13.175Z,83.38
2022-12-17T21:01:41.265Z,83.44
2022-12-17T21:04:08.742Z,83.24
2022-12-17T21:06:40.677Z,83.19
2022-12-17T21:09:08.891Z,83.37
2022-12-17T21:11:38.841Z,83.24
2022-12-17T21:14:10.034Z,82.24
2022-12-17T21:16:40.014Z,82.48
2022-12-17T21:19:09.523Z,82.54
2022-12-17T21:21:38.690Z,82.90
2022-12-17T21:24:08.322Z,83.12
2022-12-17T21:26:40.024Z,82.99
2022-12-17T21:29:08.875Z,83.03
2022-12-17T21:31:41.580Z,82.71
2022-12-17T21:34:14.579Z,82.58
2022-12-17T21:36:42.538Z,82.60
2022-12-17T21:39:13.412Z,82.65
2022-12-17T21:42:03.920Z,82.34
2022-12-17T21:44:31.224Z,82.47
2022-12-17T21:46:58.849Z,82.72
2022-12-17T21:49:26.203Z,82.36
2022-12-17T21:51:53.889Z,82.35
2022-12-17T21:54:21.187Z,82.44
2022-12-17T21:56:48.992Z,82.33
2022-12-17T21:59:16.459Z,82.31
2022-12-17T22:01:45.430Z,81.83
2022-12-17T22:04:13.011Z,81.98
2022-12-17T22:06:41.668Z,82.24
2022-12-17T22:09:25.901Z,81.68
2022-12-17T22:12:20.876Z,81.48
2022-12-17T22:14:48.234Z,81.67
2022-12-17T22:17:16.334Z,81.52
2022-12-17T22:19:43.610Z,81.70
2022-12-17T22:22:11.178Z,81.79
2022-12-17T22:24:38.596Z,81.80
2022-12-17T22:27:09.490Z,82.38
2022-12-17T22:29:56.247Z,82.06
2022-12-17T22:32:42.407Z,81.40
2022-12-17T22:36:43.667Z,81.49
2022-12-17T22:41:45.146Z,81.41
2022-12-17T22:44:42.466Z,81.32
2022-12-17T22:44:45.959Z,81.35
2022-12-17T22:46:20.775Z,80.97
2022-12-17T22:48:48.465Z,81.06
2022-12-17T22:51:25.101Z,80.84
2022-12-17T22:54:04.513Z,80.96
2022-12-17T22:56:51.117Z,80.69
2022-12-17T22:59:22.009Z,80.74
2022-12-17T23:01:49.290Z,81.13
2022-12-17T23:04:17.315Z,81.15
2022-12-17T23:06:46.077Z,81.42
2022-12-17T23:09:19.224Z,81.14
2022-12-17T23:11:49.083Z,80.91
2022-12-17T23:14:18.414Z,80.67
2022-12-17T23:16:45.825Z,80.65
2022-12-17T23:19:14.347Z,80.88
2022-12-17T23:21:41.852Z,81.25
2022-12-17T23:24:09.633Z,81.06
2022-12-17T23:26:37.741Z,80.73
2022-12-17T23:29:10.900Z,80.38
2022-12-17T23:31:42.820Z,80.20
2022-12-17T23:34:10.419Z,80.09
2022-12-17T23:36:37.848Z,80.05
2022-12-17T23:39:06.320Z,80.07
2022-12-17T23:41:33.879Z,80.49
2022-12-17T23:44:01.800Z,80.67
2022-12-17T23:46:30.684Z,80.53
2022-12-17T23:49:08.574Z,80.88
2022-12-17T23:51:35.780Z,80.86
2022-12-17T23:54:03.660Z,80.61
2022-12-17T23:56:31.047Z,80.74
2022-12-17T23:59:01.503Z,80.32
